.
WxDataArchive / Data Records for 2006-04-07
2006-04-06 April 2006 2006-04-08

Data Records for Friday, 07 April 2006

Time	Temp	Chill	HIndex	Humid	Dewpt	 Wind 	HiWind	WindDir	Rain 	Barom 
-----	----	-----	------	-----	-----	------	------	-------	-----	----- 
00:00	51.1	51.1	51.1	90	48.3	1	3	112	0.00	29.641 
00:05	51.0	51.0	51.0	90	48.2	1	2	112	0.00	29.641 
00:10	51.0	51.0	51.0	91	48.5	1	3	45	0.00	29.641 
00:15	51.0	51.0	51.0	91	48.5	1	5	112	0.00	29.639 
00:20	50.8	50.8	50.8	91	48.3	0	2	90	0.00	29.639 
00:25	50.8	50.8	50.8	91	48.3	1	3	112	0.00	29.639 
00:30	50.8	50.8	50.8	91	48.3	1	3	112	0.00	29.630 
00:35	50.8	50.8	50.8	92	48.6	0	2	112	0.00	29.630 
00:40	50.8	50.8	50.8	92	48.6	1	3	112	0.01	29.630 
00:45	50.8	50.8	50.8	92	48.6	1	3	112	0.00	29.618 
00:50	50.8	50.8	50.8	92	48.6	1	3	112	0.02	29.618 
00:55	50.8	50.8	50.8	92	48.6	1	3	112	0.01	29.618 
01:00	50.8	50.8	50.8	92	48.6	1	3	112	0.02	29.616 
01:05	50.7	50.7	50.7	92	48.5	1	3	112	0.01	29.616 
01:10	50.7	50.7	50.7	92	48.5	1	3	112	0.01	29.616 
01:15	50.7	50.7	50.7	93	48.7	1	3	112	0.02	29.607 
01:20	50.5	50.5	50.5	93	48.6	1	3	112	0.01	29.607 
01:25	50.5	50.5	50.5	93	48.6	1	2	112	0.00	29.607 
01:30	50.5	50.5	50.5	93	48.6	1	4	112	0.00	29.604 
01:35	50.4	50.4	50.4	93	48.5	1	3	112	0.00	29.604 
01:40	50.4	50.4	50.4	93	48.5	1	2	112	0.00	29.604 
01:45	50.4	50.4	50.4	93	48.5	0	2	112	0.00	29.593 
01:50	50.4	50.4	50.4	93	48.5	1	3	112	0.00	29.593 
01:55	50.4	50.4	50.4	93	48.5	0	1	112	0.00	29.593 
02:00	50.4	50.4	50.4	93	48.5	0	2	112	0.00	29.583 
02:05	50.4	50.4	50.4	93	48.5	1	3	112	0.00	29.583 
02:10	50.5	50.5	50.5	93	48.6	1	2	112	0.00	29.583 
02:15	50.5	50.5	50.5	93	48.6	0	1	112	0.00	29.583 
02:20	50.5	50.5	50.5	93	48.6	0	1	112	0.00	29.583 
02:25	50.5	50.5	50.5	93	48.6	0	2	112	0.00	29.583 
02:30	50.5	50.5	50.5	94	48.8	0	1	112	0.00	29.574 
02:35	50.5	50.5	50.5	94	48.8	0	1	112	0.00	29.574 
02:40	50.4	50.4	50.4	94	48.7	0	1	112	0.00	29.574 
02:45	50.4	50.4	50.4	94	48.7	0	1	112	0.00	29.561 
02:50	50.4	50.4	50.4	94	48.7	0	1	112	0.00	29.561 
02:55	50.4	50.4	50.4	94	48.7	0	1	112	0.00	29.561 
03:00	50.4	50.4	50.4	94	48.7	0	1	112	0.00	29.553 
03:05	50.4	50.4	50.4	94	48.7	0	1	112	0.00	29.553 
03:10	50.4	50.4	50.4	94	48.7	0	2	112	0.00	29.553 
03:15	50.2	50.2	50.2	94	48.5	0	1	112	0.00	29.545 
03:20	50.2	50.2	50.2	94	48.5	0	1	112	0.00	29.545 
03:25	50.2	50.2	50.2	94	48.5	0	0	---	0.00	29.545 
03:30	50.2	50.2	50.2	94	48.5	0	0	---	0.00	29.545 
03:35	50.2	50.2	50.2	94	48.5	0	0	---	0.00	29.545 
03:40	50.2	50.2	50.2	94	48.5	0	0	---	0.00	29.545 
03:45	50.2	50.2	50.2	94	48.5	0	0	---	0.00	29.539 
03:50	50.2	50.2	50.2	94	48.5	0	0	---	0.00	29.539 
03:55	50.2	50.2	50.2	94	48.5	0	1	112	0.00	29.539 
04:00	50.2	50.2	50.2	94	48.5	0	1	112	0.00	29.526 
04:05	50.2	50.2	50.2	94	48.5	0	0	---	0.00	29.526 
04:10	50.2	50.2	50.2	94	48.5	0	1	112	0.00	29.526 
04:15	50.1	50.1	50.1	94	48.4	0	2	112	0.00	29.524 
04:20	50.1	50.1	50.1	94	48.4	1	2	112	0.00	29.524 
04:25	50.1	50.1	50.1	94	48.4	0	1	112	0.00	29.524 
04:30	50.1	50.1	50.1	94	48.4	1	2	112	0.00	29.514 
04:35	50.1	50.1	50.1	94	48.4	0	2	112	0.00	29.514 
04:40	49.9	49.9	49.9	94	48.2	1	3	112	0.00	29.514 
04:45	49.9	49.9	49.9	95	48.5	1	2	112	0.00	29.499 
04:50	49.9	49.9	49.9	95	48.5	1	2	112	0.00	29.499 
04:55	49.9	49.9	49.9	95	48.5	1	2	112	0.00	29.499 
05:00	50.1	50.1	50.1	95	48.7	0	1	112	0.00	29.498 
05:05	50.1	50.1	50.1	95	48.7	1	2	112	0.00	29.498 
05:10	50.1	50.1	50.1	95	48.7	0	2	112	0.00	29.498 
05:15	50.1	50.1	50.1	95	48.7	0	1	112	0.00	29.492 
05:20	50.2	50.2	50.2	95	48.8	0	1	112	0.00	29.492 
05:25	50.1	50.1	50.1	95	48.7	0	1	112	0.00	29.492 
05:30	50.1	50.1	50.1	95	48.7	0	2	112	0.00	29.486 
05:35	50.1	50.1	50.1	95	48.7	1	3	112	0.00	29.486 
05:40	50.1	50.1	50.1	95	48.7	1	2	112	0.00	29.486 
05:45	50.1	50.1	50.1	95	48.7	1	2	112	0.00	29.470 
05:50	50.1	50.1	50.1	95	48.7	0	2	112	0.00	29.470 
05:55	50.1	50.1	50.1	95	48.7	0	2	112	0.00	29.470 
06:00	50.1	50.1	50.1	95	48.7	0	1	112	0.00	29.468 
06:05	50.2	50.2	50.2	95	48.8	0	1	112	0.00	29.468 
06:10	50.2	50.2	50.2	95	48.8	0	2	112	0.00	29.468 
06:15	50.2	50.2	50.2	95	48.8	0	2	112	0.00	29.467 
06:20	50.2	50.2	50.2	95	48.8	1	3	112	0.00	29.467 
06:25	50.2	50.2	50.2	95	48.8	1	3	112	0.00	29.467 
06:30	50.4	50.4	50.4	95	49.0	0	2	112	0.00	29.467 
06:35	50.4	50.4	50.4	95	49.0	0	1	112	0.00	29.467 
06:40	50.4	50.4	50.4	95	49.0	0	1	112	0.00	29.467 
06:45	50.4	50.4	50.4	95	49.0	0	3	135	0.01	29.463 
06:50	50.5	50.5	50.5	95	49.1	0	2	180	0.00	29.463 
06:55	50.5	50.5	50.5	95	49.1	0	2	202	0.00	29.463 
07:00	50.8	50.8	50.8	95	49.4	1	3	90	0.00	29.456 
07:05	51.0	51.0	51.0	95	49.6	1	2	90	0.00	29.456 
07:10	51.1	51.1	51.1	95	49.7	0	2	135	0.00	29.456 
07:15	51.3	51.3	51.3	95	49.9	1	5	248	0.00	29.459 
07:20	51.4	51.4	51.4	95	50.0	1	3	248	0.00	29.459 
07:25	51.4	51.4	51.4	95	50.0	0	3	248	0.00	29.459 
07:30	51.6	51.6	51.6	95	50.2	1	3	248	0.00	29.455 
07:35	51.7	51.7	51.7	94	50.0	0	1	248	0.00	29.455 
07:40	51.7	51.7	51.7	94	50.0	0	1	248	0.00	29.455 
07:45	51.7	51.7	51.7	94	50.0	0	1	248	0.00	29.448 
07:50	51.7	51.7	51.7	94	50.0	0	1	248	0.00	29.448 
07:55	51.7	51.7	51.7	94	50.0	0	0	---	0.00	29.448 
08:00	51.7	51.7	51.7	94	50.0	0	1	248	0.00	29.447 
08:05	51.9	51.9	51.9	94	50.2	0	0	---	0.00	29.447 
08:10	52.0	52.0	52.0	94	50.3	0	1	248	0.00	29.447 
08:15	52.2	52.2	52.2	94	50.5	0	1	248	0.00	29.452 
08:20	52.3	52.3	52.3	94	50.6	0	2	248	0.00	29.452 
08:25	52.5	52.5	52.5	94	50.8	0	1	248	0.00	29.452 
08:30	52.5	52.5	52.5	94	50.8	0	1	248	0.00	29.452 
08:35	52.6	52.6	52.6	94	50.9	0	1	248	0.00	29.452 
08:40	52.9	52.9	52.9	94	51.2	0	2	248	0.00	29.452 
08:45	53.2	53.2	53.2	94	51.5	0	2	248	0.00	29.450 
08:50	53.3	53.3	53.3	94	51.6	0	2	248	0.00	29.450 
08:55	53.5	53.5	53.5	93	51.5	1	2	248	0.00	29.450 
09:00	53.6	53.6	53.6	93	51.6	0	2	248	0.00	29.451 
09:05	53.6	53.6	53.6	93	51.6	0	2	248	0.00	29.451 
09:10	53.8	53.8	53.8	93	51.8	1	3	248	0.00	29.451 
09:15	54.2	54.2	54.2	93	52.2	1	3	248	0.00	29.452 
09:20	54.7	54.7	54.7	93	52.7	1	3	248	0.00	29.452 
09:25	55.0	55.0	55.0	93	53.0	1	4	248	0.00	29.452 
09:30	55.3	55.3	55.3	92	53.0	1	3	248	0.00	29.451 
09:35	55.6	55.6	55.6	92	53.3	1	4	248	0.00	29.451 
09:40	56.0	56.0	56.0	91	53.4	2	4	248	0.00	29.451 
09:45	56.5	56.5	56.5	91	53.9	2	5	248	0.00	29.450 
09:50	56.9	56.9	56.9	91	54.3	2	4	248	0.00	29.450 
09:55	57.3	57.3	57.3	90	54.4	2	4	248	0.00	29.450 
10:00	57.3	57.3	57.3	89	54.1	3	5	248	0.00	29.451 
10:05	57.6	57.6	57.6	89	54.4	2	7	248	0.00	29.451 
10:10	57.8	57.8	57.8	88	54.3	3	7	248	0.00	29.451 
10:15	58.1	58.1	58.1	88	54.6	3	7	248	0.00	29.452 
10:20	58.4	58.4	58.4	88	54.9	3	5	248	0.00	29.452 
10:25	58.9	58.9	58.9	87	55.0	3	5	248	0.00	29.452 
10:30	59.6	59.6	59.6	86	55.4	3	6	248	0.00	29.450 
10:35	59.8	59.8	59.8	85	55.3	4	7	248	0.00	29.450 
10:40	60.4	60.4	60.4	85	55.9	4	10	248	0.00	29.450 
10:45	61.3	61.3	61.3	83	56.1	4	11	248	0.00	29.449 
10:50	62.0	62.0	62.0	81	56.1	6	16	248	0.00	29.449 
10:55	62.4	62.4	62.4	81	56.5	5	10	270	0.00	29.449 
11:00	63.1	63.1	63.1	81	57.2	4	9	248	0.00	29.447 
11:05	64.0	64.0	64.0	79	57.4	4	11	270	0.00	29.447 
11:10	65.0	65.0	65.0	79	58.3	3	6	270	0.00	29.447 
11:15	65.3	65.3	65.3	77	57.9	6	13	248	0.00	29.446 
11:20	65.8	65.8	65.8	76	58.0	4	10	270	0.00	29.446 
11:25	66.4	66.4	66.4	75	58.2	4	14	270	0.00	29.446 
11:30	67.1	67.1	67.1	73	58.1	4	9	270	0.00	29.444 
11:35	67.6	67.6	67.6	72	58.2	3	6	270	0.00	29.444 
11:40	67.8	67.8	67.8	72	58.4	4	12	270	0.00	29.444 
11:45	68.8	68.8	68.8	72	59.4	4	9	270	0.00	29.450 
11:50	69.1	69.1	69.1	68	58.1	6	16	270	0.00	29.450 
11:55	68.8	68.8	68.8	68	57.8	7	15	270	0.00	29.450 
12:00	68.6	68.6	68.6	69	58.0	7	14	270	0.00	29.456 
12:05	68.9	68.9	68.9	68	57.9	6	16	248	0.00	29.456 
12:10	69.3	69.3	69.3	68	58.3	6	13	270	0.00	29.456 
12:15	69.4	69.4	69.4	66	57.5	5	13	248	0.00	29.459 
12:20	69.9	69.9	69.9	65	57.6	4	10	270	0.00	29.459 
12:25	70.1	70.1	70.1	65	57.8	6	15	248	0.00	29.459 
12:30	70.3	70.3	70.3	62	56.7	7	16	270	0.00	29.460 
12:35	70.4	70.4	70.4	62	56.7	7	16	270	0.00	29.460 
12:40	70.8	70.8	70.8	62	57.1	5	11	248	0.00	29.460 
12:45	71.5	71.5	71.5	62	57.8	5	11	270	0.00	29.463 
12:50	71.6	71.6	71.6	61	57.4	6	15	270	0.00	29.463 
12:55	71.8	71.8	71.8	57	55.7	6	13	270	0.00	29.463 
13:00	72.1	72.1	72.1	58	56.5	7	13	270	0.00	29.461 
13:05	72.1	72.1	72.1	54	54.5	6	12	270	0.00	29.461 
13:10	72.5	72.5	72.5	53	54.4	5	13	270	0.00	29.461 
13:15	73.0	73.0	73.0	52	54.3	5	13	270	0.00	29.471 
13:20	73.3	73.3	73.3	52	54.6	5	11	270	0.00	29.471 
13:25	73.0	73.0	73.0	49	52.7	6	11	270	0.00	29.471 
13:30	72.8	72.8	72.8	48	52.0	6	12	270	0.00	29.472 
13:35	73.0	73.0	73.0	51	53.8	5	12	270	0.00	29.472 
13:40	73.5	73.5	73.5	45	50.8	7	23	270	0.00	29.472 
13:45	73.9	73.9	73.9	47	52.4	7	18	270	0.00	29.470 
13:50	74.4	74.4	74.4	45	51.7	5	14	270	0.00	29.470 
13:55	74.2	74.2	74.2	49	53.8	5	12	270	0.00	29.470 
14:00	74.6	74.6	74.6	48	53.6	5	9	270	0.00	29.471 
14:05	74.0	74.0	74.0	46	51.9	4	11	270	0.00	29.471 
14:10	74.4	74.4	74.4	47	52.8	4	9	270	0.00	29.471 
14:15	74.2	74.2	74.2	45	51.5	8	17	270	0.00	29.475 
14:20	73.5	73.5	73.5	46	51.4	6	14	270	0.00	29.475 
14:25	73.7	73.7	73.7	45	51.0	5	10	270	0.00	29.475 
14:30	74.2	74.2	74.2	45	51.5	6	14	270	0.00	29.473 
14:35	74.2	74.2	74.2	43	50.2	5	16	270	0.00	29.473 
14:40	74.6	74.6	74.6	41	49.3	6	13	270	0.00	29.473 
14:45	74.9	74.9	74.9	44	51.5	6	15	270	0.00	29.472 
14:50	75.3	75.3	77.7	43	51.2	5	14	270	0.00	29.472 
14:55	75.4	75.4	77.7	43	51.3	7	17	270	0.00	29.472 
15:00	75.3	75.3	77.5	39	48.6	6	17	270	0.00	29.468 
15:05	75.3	75.3	77.6	41	50.0	7	13	270	0.00	29.468 
15:10	75.4	75.4	77.7	45	52.6	4	10	270	0.00	29.468 
15:15	75.8	75.8	77.8	42	51.1	4	12	270	0.00	29.463 
15:20	75.8	75.8	77.7	40	49.7	6	11	270	0.00	29.463 
15:25	75.1	75.1	77.6	42	50.4	6	15	270	0.00	29.463 
15:30	75.8	75.8	77.9	44	52.3	4	11	270	0.00	29.457 
15:35	75.6	75.6	77.6	39	48.9	7	13	270	0.00	29.457 
15:40	74.7	74.7	74.7	43	50.7	4	7	270	0.00	29.457 
15:45	72.5	72.5	72.5	59	57.3	2	4	0	0.00	29.470 
15:50	70.9	70.9	70.9	60	56.3	3	7	0	0.00	29.470 
15:55	69.9	69.9	69.9	63	56.7	3	6	0	0.00	29.470 
16:00	69.4	69.4	69.4	64	56.7	2	6	270	0.00	29.475 
16:05	68.1	68.1	68.1	65	55.9	4	9	0	0.00	29.475 
16:10	66.9	66.9	66.9	69	56.4	4	13	0	0.00	29.475 
16:15	65.8	65.8	65.8	69	55.3	3	10	338	0.00	29.491 
16:20	65.2	65.2	65.2	70	55.2	3	9	338	0.00	29.491 
16:25	65.0	65.0	65.0	69	54.6	4	10	338	0.00	29.491 
16:30	64.5	64.5	64.5	70	54.5	3	7	0	0.00	29.506 
16:35	63.2	63.2	63.2	72	54.0	3	9	0	0.00	29.506 
16:40	62.4	62.4	62.4	72	53.2	3	11	22	0.00	29.506 
16:45	61.6	61.6	61.6	74	53.2	2	6	22	0.00	29.513 
16:50	61.3	61.3	61.3	73	52.6	3	9	22	0.00	29.513 
16:55	61.2	61.2	61.2	74	52.8	3	10	315	0.00	29.513 
17:00	60.4	60.4	60.4	74	52.1	3	9	0	0.00	29.529 
17:05	59.3	59.3	59.3	76	51.7	3	8	90	0.00	29.529 
17:10	58.1	58.1	58.1	76	50.6	4	13	22	0.00	29.529 
17:15	57.2	57.2	57.2	78	50.4	2	9	338	0.00	29.534 
17:20	56.7	56.7	56.7	79	50.3	3	6	90	0.00	29.534 
17:25	56.2	56.2	56.2	78	49.4	3	6	68	0.00	29.534 
17:30	55.9	55.9	55.9	79	49.5	2	7	90	0.00	29.560 
17:35	55.7	55.7	55.7	79	49.3	1	3	112	0.00	29.560 
17:40	55.4	55.4	55.4	79	49.0	3	10	45	0.00	29.560 
17:45	54.8	54.8	54.8	78	48.1	4	10	45	0.00	29.562 
17:50	54.5	54.5	54.5	79	48.1	3	7	112	0.00	29.562 
17:55	54.2	54.2	54.2	79	47.8	4	9	112	0.00	29.562 
18:00	54.1	54.1	54.1	82	48.7	3	7	90	0.00	29.570 
18:05	53.8	53.8	53.8	80	47.8	3	9	45	0.00	29.570 
18:10	53.5	53.5	53.5	80	47.5	5	10	112	0.00	29.570 
18:15	53.5	53.5	53.5	80	47.5	2	6	90	0.00	29.578 
18:20	53.3	53.3	53.3	78	46.6	3	7	90	0.00	29.578 
18:25	52.9	52.9	52.9	79	46.6	4	11	112	0.00	29.578 
18:30	52.5	52.5	52.5	79	46.2	3	9	112	0.00	29.589 
18:35	52.3	52.3	52.3	79	46.0	2	5	68	0.00	29.589 
18:40	52.2	52.2	52.2	80	46.2	3	7	45	0.00	29.589 
18:45	51.9	51.9	51.9	80	45.9	3	10	112	0.00	29.619 
18:50	51.7	51.7	51.7	80	45.7	3	7	90	0.00	29.619 
18:55	51.6	51.6	51.6	80	45.6	3	7	22	0.00	29.619 
19:00	51.4	51.4	51.4	79	45.1	3	6	68	0.00	29.631 
19:05	51.1	51.1	51.1	79	44.8	3	6	90	0.00	29.631 
19:10	51.0	51.0	51.0	78	44.4	3	6	68	0.00	29.631 
19:15	50.8	50.8	50.8	78	44.2	3	7	112	0.00	29.632 
19:20	50.7	50.7	50.7	78	44.1	3	10	22	0.00	29.632 
19:25	50.2	50.2	50.2	79	43.9	3	7	0	0.00	29.632 
19:30	49.4	49.4	49.4	78	42.8	3	11	22	0.00	29.648 
19:35	48.3	48.3	48.3	78	41.8	3	10	22	0.00	29.648 
19:40	47.9	47.9	47.9	79	41.7	3	7	338	0.00	29.648 
19:45	47.6	47.6	47.6	81	42.1	3	6	135	0.00	29.666 
19:50	47.0	45.4	47.0	83	42.1	4	11	45	0.00	29.666 
19:55	46.2	44.5	46.2	85	41.9	4	10	68	0.00	29.666 
20:00	45.5	43.7	45.5	86	41.6	4	11	90	0.00	29.678 
20:05	44.9	44.9	44.9	86	41.0	3	9	68	0.00	29.678 
20:10	44.1	44.1	44.1	85	39.9	3	10	45	0.00	29.678 
20:15	43.3	40.3	43.3	86	39.4	5	13	90	0.00	29.695 
20:20	43.2	43.2	43.2	86	39.3	3	7	112	0.00	29.695 
20:25	42.9	42.9	42.9	85	38.7	3	11	22	0.00	29.695 
20:30	42.8	42.8	42.8	85	38.6	3	12	45	0.00	29.701 
20:35	42.6	42.6	42.6	85	38.4	3	11	0	0.00	29.701 
20:40	42.3	42.3	42.3	86	38.4	2	9	0	0.00	29.701 
20:45	42.2	42.2	42.2	84	37.7	3	12	68	0.00	29.715 
20:50	41.9	39.5	41.9	83	37.1	4	16	112	0.00	29.715 
20:55	41.8	41.8	41.8	83	37.0	3	10	22	0.00	29.715 
21:00	41.5	38.2	41.5	81	36.1	5	12	112	0.00	29.735 
21:05	41.2	38.7	41.2	81	35.8	4	9	45	0.00	29.735 
21:10	41.1	38.6	41.1	81	35.7	4	11	45	0.00	29.735 
21:15	40.9	38.4	40.9	80	35.2	4	11	22	0.00	29.743 
21:20	41.1	41.1	41.1	81	35.7	3	10	90	0.00	29.743 
21:25	40.9	37.5	40.9	77	34.3	5	13	90	0.00	29.743 
21:30	41.1	38.6	41.1	77	34.4	4	11	22	0.00	29.746 
21:35	41.1	38.6	41.1	76	34.1	4	16	22	0.00	29.746 
21:40	41.1	41.1	41.1	75	33.8	3	10	45	0.00	29.746 
21:45	41.1	38.6	41.1	75	33.8	4	13	112	0.00	29.748 
21:50	41.1	41.1	41.1	74	33.5	3	10	45	0.00	29.748 
21:55	41.1	41.1	41.1	73	33.1	3	11	45	0.00	29.748 
22:00	41.1	41.1	41.1	73	33.1	3	10	112	0.00	29.767 
22:05	40.9	40.9	40.9	74	33.3	3	9	68	0.00	29.767 
22:10	40.9	40.9	40.9	74	33.3	3	6	90	0.00	29.767 
22:15	40.8	40.8	40.8	74	33.2	3	11	45	0.00	29.755 
22:20	40.8	40.8	40.8	74	33.2	3	7	45	0.00	29.755 
22:25	40.8	40.8	40.8	74	33.2	2	5	90	0.00	29.755 
22:30	40.8	40.8	40.8	74	33.2	2	7	338	0.00	29.772 
22:35	40.6	40.6	40.6	73	32.6	3	8	68	0.00	29.772 
22:40	40.5	37.9	40.5	73	32.5	4	11	45	0.00	29.772 
22:45	40.5	37.9	40.5	73	32.5	4	12	45	0.00	29.775 
22:50	40.3	40.3	40.3	72	32.0	3	12	45	0.00	29.775 
22:55	40.3	40.3	40.3	73	32.3	3	7	45	0.00	29.775 
23:00	40.3	40.3	40.3	73	32.3	3	8	22	0.00	29.792 
23:05	40.2	40.2	40.2	73	32.2	3	10	45	0.00	29.792 
23:10	40.2	40.2	40.2	74	32.6	3	9	90	0.00	29.792 
23:15	40.2	40.2	40.2	73	32.2	3	7	22	0.00	29.796 
23:20	40.2	40.2	40.2	72	31.9	3	9	68	0.00	29.796 
23:25	40.1	40.1	40.1	72	31.8	3	9	68	0.00	29.796 
23:30	39.9	39.9	39.9	73	32.0	3	6	45	0.00	29.805 
23:35	39.9	39.9	39.9	73	32.0	2	6	68	0.00	29.805 
23:40	39.9	39.9	39.9	73	32.0	3	6	68	0.00	29.805 
23:45	39.9	39.9	39.9	73	32.0	2	7	68	0.00	29.814 
23:50	39.8	39.8	39.8	73	31.9	3	6	22	0.00	29.814 
23:55	39.6	39.6	39.6	73	31.7	3	10	68	0.00	29.814 

CoCoRaHS
IN-AL-39
A2 Web Hosting
Creative Commons License
GoDaddy
Look for:

loaded 2017-10-17 22:10:04 • last modified 2010-11-18 10:43:29
Privacy PolicyDisclaimer
• wx.awcolley.com is powered by PmWiki v.2002016 •
• all content (unless otherwise noted) © 2017 A W Colley